Time;durP1;ratioP1;P1;durP2;ratioP2;P2;SDS_P1;SDS_P2;PMS_P1;PMS_P2;Temp;Humidity;BMP_temperature;BMP_pressure;BME280_temperature;BME280_humidity;BME280_pressure;Samples;Min_cycle;Max_cycle;Signal;HPM_P1;HPM_P2
2023/09/09 00:00:42;;;;;;;;;17.33;17.33;;;;;-146.67;100.00;57155.34;5103823;28;9631;-78
2023/09/09 00:03:07;;;;;;;;;16.00;16.00;;;;;-146.67;100.00;57155.34;5099147;28;9321;-79
2023/09/09 00:05:33;;;;;;;;;21.33;16.67;;;;;-146.67;100.00;57155.34;5095016;28;9578;-78
2023/09/09 00:07:59;;;;;;;;;18.33;16.67;;;;;-146.67;100.00;57155.34;5102462;28;10045;-79
2023/09/09 00:10:25;;;;;;;;;16.33;14.00;;;;;-146.67;100.00;57155.34;5104104;28;8723;-78
2023/09/09 00:12:50;;;;;;;;;16.00;15.67;;;;;-146.67;100.00;57155.34;5101714;28;9354;-78
2023/09/09 00:15:15;;;;;;;;;20.00;14.25;;;;;-146.67;100.00;57155.34;5104042;28;8826;-79
2023/09/09 00:17:41;;;;;;;;;20.75;18.75;;;;;-146.67;100.00;57155.34;5085763;28;9866;-78
2023/09/09 00:20:11;;;;;;;;;15.50;15.50;;;;;-146.67;100.00;57155.34;5103412;28;8779;-78
2023/09/09 00:22:36;;;;;;;;;16.67;15.00;;;;;-146.67;100.00;57155.34;5102581;28;8825;-79
2023/09/09 00:25:02;;;;;;;;;18.50;15.75;;;;;-146.67;100.00;57155.34;5103414;28;9527;-78
2023/09/09 00:27:28;;;;;;;;;18.50;17.00;;;;;-146.67;100.00;57155.34;5084754;28;10113;-78
2023/09/09 00:29:53;;;;;;;;;21.50;18.50;;;;;-146.67;100.00;57155.34;5103514;28;9733;-78
2023/09/09 00:32:19;;;;;;;;;13.75;11.50;;;;;-146.67;100.00;57155.34;5103772;28;8783;-79
2023/09/09 00:34:44;;;;;;;;;19.50;16.75;;;;;-146.67;100.00;57155.34;5103788;28;8775;-79
2023/09/09 00:37:09;;;;;;;;;21.00;16.00;;;;;-146.67;100.00;57155.34;5103428;28;8868;-78
2023/09/09 00:39:35;;;;;;;;;19.75;17.00;;;;;-146.67;100.00;57155.34;5101920;28;8814;-78
2023/09/09 00:42:00;;;;;;;;;16.00;16.00;;;;;-146.67;100.00;57155.34;5102992;28;8787;-78
2023/09/09 00:44:26;;;;;;;;;21.00;18.50;;;;;-146.67;100.00;57155.34;5106271;28;8803;-78
2023/09/09 00:46:52;;;;;;;;;16.75;16.25;;;;;-146.67;100.00;57155.34;5086995;28;8835;-78
2023/09/09 00:49:17;;;;;;;;;18.50;17.00;;;;;-146.67;100.00;57155.34;5122557;28;9056;-78
2023/09/09 00:51:44;;;;;;;;;20.00;17.50;;;;;-146.67;100.00;57155.34;5121069;28;8857;-79
2023/09/09 00:54:11;;;;;;;;;17.50;16.25;;;;;-146.67;100.00;57155.34;5123059;28;8771;-79
2023/09/09 00:56:37;;;;;;;;;25.50;21.25;;;;;-146.67;100.00;57155.34;5122937;28;9785;-78
2023/09/09 00:59:03;;;;;;;;;22.00;18.25;;;;;-146.67;100.00;57155.34;5091303;28;9865;-78
2023/09/09 01:01:31;;;;;;;;;23.25;17.25;;;;;-146.67;100.00;57155.34;5103645;28;9706;-78
2023/09/09 01:03:56;;;;;;;;;18.75;14.00;;;;;-146.67;100.00;57155.34;5111639;28;9605;-79
2023/09/09 01:06:22;;;;;;;;;15.33;14.33;;;;;-146.67;100.00;57155.34;5102903;28;9678;-78
2023/09/09 01:08:48;;;;;;;;;19.00;15.75;;;;;-146.67;100.00;57155.34;5106162;28;8789;-79
2023/09/09 01:11:14;;;;;;;;;21.67;17.00;;;;;-146.67;100.00;57155.34;5108656;28;8909;-78
2023/09/09 01:13:40;;;;;;;;;17.25;17.25;;;;;-146.67;100.00;57155.34;5103036;28;9495;-78
2023/09/09 01:16:06;;;;;;;;;18.50;16.75;;;;;-146.67;100.00;57155.34;5103512;28;8902;-78
2023/09/09 01:18:34;;;;;;;;;17.00;16.50;;;;;-146.67;100.00;57155.34;5101620;28;8779;-78
2023/09/09 01:21:10;;;;;;;;;24.00;20.00;;;;;-146.67;100.00;57155.34;5096241;28;9709;-78
2023/09/09 01:23:36;;;;;;;;;17.25;16.75;;;;;-146.67;100.00;57155.34;5102738;28;9793;-79
2023/09/09 01:26:02;;;;;;;;;18.75;17.75;;;;;-146.67;100.00;57155.34;5102586;28;9752;-78
2023/09/09 01:28:28;;;;;;;;;18.25;15.50;;;;;-146.67;100.00;57155.34;5100867;28;9668;-79
2023/09/09 01:30:54;;;;;;;;;18.25;15.75;;;;;-146.67;100.00;57155.34;5101188;28;10366;-78
2023/09/09 01:33:19;;;;;;;;;16.75;14.75;;;;;-146.67;100.00;57155.34;5103114;28;8876;-78
2023/09/09 01:35:46;;;;;;;;;22.25;18.75;;;;;-146.67;100.00;57155.34;5101844;28;8840;-78
2023/09/09 01:38:12;;;;;;;;;17.50;16.25;;;;;-146.67;100.00;57155.34;5101468;28;8766;-78
2023/09/09 01:40:37;;;;;;;;;17.67;16.67;;;;;-146.67;100.00;57155.34;5102064;28;9721;-78
2023/09/09 01:43:03;;;;;;;;;7.67;5.00;;;;;-146.67;100.00;57155.34;5101279;28;8926;-78
2023/09/09 01:45:28;;;;;;;;;16.00;15.33;;;;;-146.67;100.00;57155.34;5102791;28;8833;-79
2023/09/09 01:47:54;;;;;;;;;9.75;8.25;;;;;-146.67;100.00;57155.34;5102803;28;8787;-79
2023/09/09 01:50:19;;;;;;;;;21.25;18.00;;;;;-146.67;100.00;57155.34;5100670;28;8906;-79
2023/09/09 01:52:44;;;;;;;;;16.00;15.33;;;;;-146.67;100.00;57155.34;5101015;28;8795;-79
2023/09/09 01:55:10;;;;;;;;;16.00;15.00;;;;;-146.67;100.00;57155.34;5097128;28;11073;-78
2023/09/09 01:57:35;;;;;;;;;17.25;15.75;;;;;-146.67;100.00;57155.34;5098951;28;8824;-78
2023/09/09 02:00:01;;;;;;;;;17.00;15.25;;;;;-146.67;100.00;57155.34;5102672;28;8807;-79
2023/09/09 02:02:26;;;;;;;;;16.00;16.00;;;;;-146.67;100.00;57155.34;5102074;28;8810;-78
2023/09/09 02:04:51;;;;;;;;;15.00;14.25;;;;;-146.67;100.00;57155.34;5100939;28;9925;-77
2023/09/09 02:07:17;;;;;;;;;23.00;17.00;;;;;-146.67;100.00;57155.34;5100930;28;8807;-77
2023/09/09 02:09:42;;;;;;;;;15.75;15.75;;;;;-146.67;100.00;57155.34;5100806;28;8819;-78
2023/09/09 02:12:08;;;;;;;;;18.75;17.00;;;;;-146.67;100.00;57155.34;5102201;28;8827;-79
2023/09/09 02:14:33;;;;;;;;;15.25;14.25;;;;;-146.67;100.00;57155.34;5100397;28;9920;-78
2023/09/09 02:16:59;;;;;;;;;24.00;18.25;;;;;-146.67;100.00;57155.34;5102022;28;8815;-78
2023/09/09 02:19:25;;;;;;;;;18.00;16.75;;;;;-146.67;100.00;57155.34;5102829;28;8787;-78
2023/09/09 02:21:50;;;;;;;;;17.75;14.50;;;;;-146.67;100.00;57155.34;5105087;28;8811;-78
2023/09/09 02:24:16;;;;;;;;;19.25;16.00;;;;;-146.67;100.00;57155.34;5097594;28;9952;-78
2023/09/09 02:26:42;;;;;;;;;21.25;19.50;;;;;-146.67;100.00;57155.34;5103406;28;8828;-78
2023/09/09 02:29:07;;;;;;;;;19.75;13.25;;;;;-146.67;100.00;57155.34;5104051;28;8795;-78
2023/09/09 02:31:32;;;;;;;;;19.50;17.50;;;;;-146.67;100.00;57155.34;5104558;28;8932;-79
2023/09/09 02:33:58;;;;;;;;;19.75;14.50;;;;;-146.67;100.00;57155.34;5104201;28;10940;-78
2023/09/09 02:36:23;;;;;;;;;17.00;13.33;;;;;-146.67;100.00;57155.34;5103589;28;8821;-78
2023/09/09 02:38:48;;;;;;;;;12.00;10.75;;;;;-146.67;100.00;57155.34;5104206;28;8796;-78
2023/09/09 02:41:14;;;;;;;;;16.50;16.50;;;;;-146.67;100.00;57155.34;5104130;28;8830;-78
2023/09/09 02:43:39;;;;;;;;;19.25;16.25;;;;;-146.67;100.00;57155.34;5105230;28;8795;-78
2023/09/09 02:46:05;;;;;;;;;18.50;15.25;;;;;-146.67;100.00;57155.34;5105349;28;8843;-78
2023/09/09 02:48:30;;;;;;;;;16.75;15.25;;;;;-146.67;100.00;57155.34;5104338;28;8817;-79
2023/09/09 02:50:56;;;;;;;;;21.75;18.75;;;;;-146.67;100.00;57155.34;5103858;28;8806;-78
2023/09/09 02:53:22;;;;;;;;;23.75;17.00;;;;;-146.67;100.00;57155.34;5086798;28;8794;-79
2023/09/09 02:55:47;;;;;;;;;13.00;6.50;;;;;-146.67;100.00;57155.34;5105346;28;9703;-78
2023/09/09 02:58:14;;;;;;;;;15.50;15.50;;;;;-146.67;100.00;57155.34;5104857;28;8810;-78
2023/09/09 03:00:40;;;;;;;;;20.33;14.67;;;;;-146.67;100.00;57155.34;5103853;28;8779;-77
2023/09/09 03:03:06;;;;;;;;;17.25;15.50;;;;;-146.67;100.00;57155.34;5086973;28;10134;-79
2023/09/09 03:05:37;;;;;;;;;22.00;18.75;;;;;-146.67;100.00;57155.34;5101250;28;10407;-78
2023/09/09 03:08:03;;;;;;;;;16.75;15.50;;;;;-146.67;100.00;57155.34;5105080;28;8735;-78
2023/09/09 03:10:29;;;;;;;;;19.75;16.50;;;;;-146.67;100.00;57155.34;5104030;28;9474;-78
2023/09/09 03:12:56;;;;;;;;;18.25;17.25;;;;;-146.67;100.00;57155.34;5101788;28;9844;-78
2023/09/09 03:15:22;;;;;;;;;15.75;15.75;;;;;-146.67;100.00;57155.34;5101467;28;8731;-78
2023/09/09 03:17:48;;;;;;;;;24.25;19.25;;;;;-146.67;100.00;57155.34;5103588;28;9578;-78
2023/09/09 03:20:14;;;;;;;;;19.00;16.00;;;;;-146.67;100.00;57155.34;5103516;28;9872;-78
2023/09/09 03:22:39;;;;;;;;;17.25;15.25;;;;;-146.67;100.00;57155.34;5104815;28;8829;-78
2023/09/09 03:25:05;;;;;;;;;21.25;17.75;;;;;-146.67;100.00;57155.34;5104365;28;8831;-78
2023/09/09 03:27:32;;;;;;;;;18.00;13.00;;;;;-146.67;100.00;57155.34;5104522;28;8741;-78
2023/09/09 03:29:58;;;;;;;;;12.50;12.50;;;;;-146.67;100.00;57155.34;5110943;28;9823;-79
2023/09/09 03:32:25;;;;;;;;;15.50;15.25;;;;;-146.67;100.00;57155.34;5112289;28;9816;-79
2023/09/09 03:34:51;;;;;;;;;20.25;18.25;;;;;-146.67;100.00;57155.34;5096130;28;8813;-78
2023/09/09 03:37:16;;;;;;;;;20.50;16.50;;;;;-146.67;100.00;57155.34;5102447;28;9843;-79
2023/09/09 03:39:42;;;;;;;;;19.50;19.50;;;;;-146.67;100.00;57155.34;5103535;28;8795;-78
2023/09/09 03:42:07;;;;;;;;;20.00;16.25;;;;;-146.67;100.00;57155.34;5104705;28;8720;-78
2023/09/09 03:44:33;;;;;;;;;16.50;15.25;;;;;-146.67;100.00;57155.34;5104062;28;10201;-78
2023/09/09 03:46:58;;;;;;;;;15.00;15.00;;;;;-146.67;100.00;57155.34;5103174;28;8814;-78
2023/09/09 03:49:24;;;;;;;;;18.25;16.50;;;;;-146.67;100.00;57155.34;5102715;28;8783;-77
2023/09/09 03:51:49;;;;;;;;;16.25;16.25;;;;;-146.67;100.00;57155.34;5103382;28;9963;-78
2023/09/09 03:54:15;;;;;;;;;16.50;15.25;;;;;-146.67;100.00;57155.34;5102804;28;9583;-78
2023/09/09 03:56:40;;;;;;;;;17.75;15.50;;;;;-146.67;100.00;57155.34;5104311;28;8819;-76
2023/09/09 03:59:05;;;;;;;;;17.25;16.00;;;;;-146.67;100.00;57155.34;5102863;28;8806;-78
2023/09/09 04:01:31;;;;;;;;;16.25;14.25;;;;;-146.67;100.00;57155.34;5079162;28;8809;-78
2023/09/09 04:03:56;;;;;;;;;19.75;16.00;;;;;-146.67;100.00;57155.34;5103885;28;8803;-78
2023/09/09 04:06:22;;;;;;;;;15.25;14.50;;;;;-146.67;100.00;57155.34;5102052;28;8830;-78
2023/09/09 04:08:47;;;;;;;;;16.25;15.25;;;;;-146.67;100.00;57155.34;5083531;28;8794;-78
2023/09/09 04:11:13;;;;;;;;;14.50;14.50;;;;;-146.67;100.00;57155.34;5082620;28;10999;-78
2023/09/09 04:13:40;;;;;;;;;16.75;16.00;;;;;-146.67;100.00;57155.34;5081818;28;8818;-77
2023/09/09 04:16:05;;;;;;;;;17.00;15.25;;;;;-146.67;100.00;57155.34;5084079;28;8724;-78
2023/09/09 04:18:31;;;;;;;;;20.00;17.50;;;;;-146.67;100.00;57155.34;5082946;28;9788;-79
2023/09/09 04:20:56;;;;;;;;;18.50;15.00;;;;;-146.67;100.00;57155.34;5081875;28;8787;-78
2023/09/09 04:23:22;;;;;;;;;17.50;15.50;;;;;-146.67;100.00;57155.34;5082264;28;8823;-78
2023/09/09 04:25:47;;;;;;;;;18.50;17.00;;;;;-146.67;100.00;57155.34;5065465;28;8952;-78
2023/09/09 04:28:13;;;;;;;;;15.75;15.50;;;;;-146.67;100.00;57155.34;5083291;28;8803;-78
2023/09/09 04:30:40;;;;;;;;;17.00;14.00;;;;;-146.67;100.00;57155.34;5083454;28;8753;-78
2023/09/09 04:33:12;;;;;;;;;16.00;15.00;;;;;-146.67;100.00;57155.34;5081642;28;9818;-79
2023/09/09 04:35:42;;;;;;;;;17.75;15.25;;;;;-146.67;100.00;57155.34;5081895;28;9660;-78
2023/09/09 04:38:09;;;;;;;;;17.00;13.25;;;;;-146.67;100.00;57155.34;5083463;28;9740;-78
2023/09/09 04:40:36;;;;;;;;;19.00;15.25;;;;;-146.67;100.00;57155.34;5083502;28;9834;-78
2023/09/09 04:43:01;;;;;;;;;14.75;14.75;;;;;-146.67;100.00;57155.34;5082788;28;9738;-78
2023/09/09 04:45:27;;;;;;;;;15.50;15.00;;;;;-146.67;100.00;57155.34;5091189;28;9757;-78
2023/09/09 04:47:52;;;;;;;;;16.50;14.25;;;;;-146.67;100.00;57155.34;5100381;28;8922;-78
2023/09/09 04:50:19;;;;;;;;;16.25;15.25;;;;;-146.67;100.00;57155.34;5099249;28;8846;-78
2023/09/09 04:52:45;;;;;;;;;13.50;13.50;;;;;-146.67;100.00;57155.34;5101126;28;8795;-79
2023/09/09 04:55:10;;;;;;;;;18.25;14.25;;;;;-146.67;100.00;57155.34;5101738;28;9721;-78
2023/09/09 04:57:36;;;;;;;;;16.50;13.25;;;;;-146.67;100.00;57155.34;5083129;28;10017;-78
2023/09/09 05:00:06;;;;;;;;;18.00;14.50;;;;;-146.67;100.00;57155.34;5102386;28;9239;-81
2023/09/09 05:02:32;;;;;;;;;15.00;15.00;;;;;-146.67;100.00;57155.34;5083741;28;8759;-78
2023/09/09 05:04:57;;;;;;;;;16.50;13.75;;;;;-146.67;100.00;57155.34;5101396;28;9587;-77
2023/09/09 05:07:23;;;;;;;;;17.25;14.25;;;;;-146.67;100.00;57155.34;5101413;28;8815;-79
2023/09/09 05:09:48;;;;;;;;;21.00;15.50;;;;;-146.67;100.00;57155.34;5102848;28;8823;-76
2023/09/09 05:12:14;;;;;;;;;11.25;10.00;;;;;-146.67;100.00;57155.34;5102886;28;8779;-77
2023/09/09 05:14:39;;;;;;;;;12.75;11.75;;;;;-146.67;100.00;57155.34;5100642;28;8807;-77
2023/09/09 05:17:05;;;;;;;;;17.25;13.75;;;;;-146.67;100.00;57155.34;5101873;28;8805;-79
2023/09/09 05:19:31;;;;;;;;;13.00;13.00;;;;;-146.67;100.00;57155.34;5098933;28;9845;-79
2023/09/09 05:21:56;;;;;;;;;16.25;15.75;;;;;-146.67;100.00;57155.34;5098402;28;8809;-78
2023/09/09 05:24:21;;;;;;;;;17.75;14.50;;;;;-146.67;100.00;57155.34;5100522;28;11449;-79
2023/09/09 05:26:47;;;;;;;;;15.00;12.75;;;;;-146.67;100.00;57155.34;5085882;28;8818;-79
2023/09/09 05:29:12;;;;;;;;;11.75;11.00;;;;;-146.67;100.00;57155.34;5101906;28;9584;-80
2023/09/09 05:31:38;;;;;;;;;17.25;12.75;;;;;-146.67;100.00;57155.34;5095058;28;8824;-78
2023/09/09 05:34:03;;;;;;;;;13.25;11.75;;;;;-146.67;100.00;57155.34;5100631;28;8804;-78
2023/09/09 05:36:29;;;;;;;;;14.00;11.00;;;;;-146.67;100.00;57155.34;5083267;28;8850;-76
2023/09/09 05:38:59;;;;;;;;;17.25;13.50;;;;;-146.67;100.00;57155.34;5101514;28;8900;-76
2023/09/09 05:41:28;;;;;;;;;15.25;12.50;;;;;-146.67;100.00;57155.34;5107852;28;8937;-76
2023/09/09 05:43:53;;;;;;;;;11.33;10.00;;;;;-146.67;100.00;57155.34;5094420;28;9666;-76
2023/09/09 05:46:19;;;;;;;;;18.25;14.75;;;;;-146.67;100.00;57155.34;5100930;28;9610;-76
2023/09/09 05:48:44;;;;;;;;;12.50;12.25;;;;;-146.67;100.00;57155.34;5101430;28;8810;-77
2023/09/09 05:51:09;;;;;;;;;15.25;13.50;;;;;-146.67;100.00;57155.34;5102450;28;8811;-77
2023/09/09 05:53:35;;;;;;;;;14.25;11.75;;;;;-146.67;100.00;57155.34;5096140;28;8813;-77
2023/09/09 05:56:00;;;;;;;;;15.25;12.50;;;;;-146.67;100.00;57155.34;5119283;28;8809;-77
2023/09/09 05:58:27;;;;;;;;;16.50;14.50;;;;;-146.67;100.00;57155.34;5122669;28;10019;-75
2023/09/09 06:00:52;;;;;;;;;16.00;16.00;;;;;-146.67;100.00;57155.34;5107286;28;8727;-76
2023/09/09 06:03:17;;;;;;;;;16.50;14.50;;;;;-146.67;100.00;57155.34;5107956;28;9735;-77
2023/09/09 06:05:43;;;;;;;;;16.50;13.00;;;;;-146.67;100.00;57155.34;5106984;28;8836;-77
2023/09/09 06:08:08;;;;;;;;;16.25;14.00;;;;;-146.67;100.00;57155.34;5097371;28;9860;-76
2023/09/09 06:10:34;;;;;;;;;16.75;15.50;;;;;-146.67;100.00;57155.34;5106822;28;8826;-77
2023/09/09 06:12:59;;;;;;;;;15.50;14.25;;;;;-146.67;100.00;57155.34;5106515;28;8826;-76
2023/09/09 06:15:25;;;;;;;;;17.00;16.00;;;;;-146.67;100.00;57155.34;5107909;28;8860;-77
2023/09/09 06:17:51;;;;;;;;;18.00;14.75;;;;;-146.67;100.00;57155.34;5085882;28;8820;-75
2023/09/09 06:20:16;;;;;;;;;12.00;12.00;;;;;-146.67;100.00;57155.34;5102406;28;8750;-76
2023/09/09 06:22:42;;;;;;;;;19.00;15.75;;;;;-146.67;100.00;57155.34;5106206;28;9770;-75
2023/09/09 06:25:08;;;;;;;;;17.75;14.00;;;;;-146.67;100.00;57155.34;5122029;28;8796;-76
2023/09/09 06:27:33;;;;;;;;;12.67;12.00;;;;;-146.67;100.00;57155.34;5103986;28;9999;-75
2023/09/09 06:29:59;;;;;;;;;18.25;14.50;;;;;-146.67;100.00;57155.34;5101759;28;9418;-75
2023/09/09 06:32:24;;;;;;;;;20.00;14.33;;;;;-146.67;100.00;57155.34;5124051;28;8946;-75
2023/09/09 06:34:50;;;;;;;;;16.25;14.25;;;;;-146.67;100.00;57155.34;5105501;28;10040;-75
2023/09/09 06:37:15;;;;;;;;;13.00;11.75;;;;;-146.67;100.00;57155.34;5088979;28;10342;-75
2023/09/09 06:39:40;;;;;;;;;19.75;14.75;;;;;-146.67;100.00;57155.34;5101811;28;8821;-76
2023/09/09 06:42:06;;;;;;;;;36.75;32.00;;;;;-146.67;100.00;57155.34;5087471;28;8797;-76
2023/09/09 06:44:32;;;;;;;;;57.75;45.50;;;;;-146.67;100.00;57155.34;5103449;28;8795;-76
2023/09/09 06:46:57;;;;;;;;;25.75;23.75;;;;;-146.67;100.00;57155.34;5107461;28;8740;-75
2023/09/09 06:49:23;;;;;;;;;19.25;18.75;;;;;-146.67;100.00;57155.34;5107158;28;10078;-74
2023/09/09 06:51:48;;;;;;;;;17.25;14.50;;;;;-146.67;100.00;57155.34;5106854;28;8945;-76
2023/09/09 06:54:14;;;;;;;;;17.67;13.67;;;;;-146.67;100.00;57155.34;5089963;28;8803;-76
2023/09/09 06:56:39;;;;;;;;;28.25;19.00;;;;;-146.67;100.00;57155.34;5116267;28;8820;-75
2023/09/09 06:59:05;;;;;;;;;17.33;14.33;;;;;-146.67;100.00;57155.34;5116361;28;8897;-75
2023/09/09 07:01:30;;;;;;;;;16.33;15.33;;;;;-146.67;100.00;57155.34;5116734;28;8862;-75
2023/09/09 07:03:56;;;;;;;;;16.00;13.67;;;;;-146.67;100.00;57155.34;5105493;28;8845;-76
2023/09/09 07:06:21;;;;;;;;;16.33;14.33;;;;;-146.67;100.00;57155.34;5093529;28;10286;-75
2023/09/09 07:08:47;;;;;;;;;13.00;12.00;;;;;-146.67;100.00;57155.34;5110669;28;8815;-76
2023/09/09 07:11:13;;;;;;;;;14.00;12.00;;;;;-146.67;100.00;57155.34;5120392;28;8807;-76
2023/09/09 07:13:38;;;;;;;;;11.33;10.00;;;;;-146.67;100.00;57155.34;5103256;28;8830;-76
2023/09/09 07:16:04;;;;;;;;;16.33;13.67;;;;;-146.67;100.00;57155.34;5105010;28;8783;-76
2023/09/09 07:18:29;;;;;;;;;16.67;14.00;;;;;-146.67;100.00;57155.34;5104992;28;8807;-76
2023/09/09 07:20:57;;;;;;;;;17.67;16.67;;;;;-146.67;100.00;57155.34;5102623;28;8867;-76
2023/09/09 07:23:23;;;;;;;;;17.67;15.00;;;;;-146.67;100.00;57155.34;5086289;28;8785;-76
2023/09/09 07:25:48;;;;;;;;;13.67;13.33;;;;;-146.67;100.00;57155.34;5104989;28;9487;-76
2023/09/09 07:28:14;;;;;;;;;19.00;14.67;;;;;-146.67;100.00;57155.34;5103450;28;8825;-75
2023/09/09 07:30:40;;;;;;;;;15.33;12.67;;;;;-146.67;100.00;57155.34;5121160;28;8830;-74
2023/09/09 07:33:05;;;;;;;;;15.00;12.00;;;;;-146.67;100.00;57155.34;5104990;28;8783;-74
2023/09/09 07:35:35;;;;;;;;;15.67;13.00;;;;;-146.67;100.00;57155.34;5104972;28;8833;-73
2023/09/09 07:38:00;;;;;;;;;20.67;16.33;;;;;-146.67;100.00;57155.34;5103349;28;8751;-74
2023/09/09 07:40:26;;;;;;;;;15.33;13.00;;;;;-146.67;100.00;57155.34;5104818;28;9273;-74
2023/09/09 07:42:51;;;;;;;;;16.33;13.67;;;;;-146.67;100.00;57155.34;5104095;28;8837;-74
2023/09/09 07:45:19;;;;;;;;;17.00;15.33;;;;;-146.67;100.00;57155.34;5102838;28;9867;-74
2023/09/09 07:47:44;;;;;;;;;18.67;14.00;;;;;-146.67;100.00;57155.34;5104658;28;8725;-74
2023/09/09 07:50:10;;;;;;;;;14.67;12.00;;;;;-146.67;100.00;57155.34;5103699;28;8945;-75
2023/09/09 07:52:35;;;;;;;;;17.00;11.00;;;;;-146.67;100.00;57155.34;5103953;28;8826;-74
2023/09/09 07:55:01;;;;;;;;;16.00;14.00;;;;;-146.67;100.00;57155.34;5101411;28;9929;-74
2023/09/09 07:57:26;;;;;;;;;14.00;12.67;;;;;-146.67;100.00;57155.34;5110261;28;9287;-75
2023/09/09 07:59:52;;;;;;;;;14.00;10.67;;;;;-146.67;100.00;57155.34;5102903;28;8808;-74
2023/09/09 08:02:17;;;;;;;;;9.33;9.00;;;;;-146.67;100.00;57155.34;5093809;28;8846;-74
2023/09/09 08:04:42;;;;;;;;;10.67;10.67;;;;;-146.67;100.00;57155.34;5101248;28;8820;-75
2023/09/09 08:07:08;;;;;;;;;13.33;10.67;;;;;-146.67;100.00;57155.34;5111163;28;8851;-74
2023/09/09 08:09:34;;;;;;;;;9.00;7.67;;;;;-146.67;100.00;57155.34;5093886;28;9600;-74
2023/09/09 08:11:59;;;;;;;;;11.67;9.33;;;;;-146.67;100.00;57155.34;5113045;28;8820;-74
2023/09/09 08:14:24;;;;;;;;;11.67;11.67;;;;;-146.67;100.00;57155.34;5108025;28;9983;-74
2023/09/09 08:16:50;;;;;;;;;11.33;10.00;;;;;-146.67;100.00;57155.34;5111976;28;8803;-74
2023/09/09 08:19:16;;;;;;;;;12.33;10.33;;;;;-146.67;100.00;57155.34;5113801;28;8965;-74
2023/09/09 08:21:42;;;;;;;;;11.00;9.67;;;;;-146.67;100.00;57155.34;5100134;28;9136;-74
2023/09/09 08:24:07;;;;;;;;;12.67;9.33;;;;;-146.67;100.00;57155.34;5118998;28;9865;-74
2023/09/09 08:26:33;;;;;;;;;12.00;8.00;;;;;-146.67;100.00;57155.34;5101756;28;8785;-74
2023/09/09 08:28:58;;;;;;;;;10.67;10.67;;;;;-146.67;100.00;57155.34;5114238;28;8885;-75
2023/09/09 08:31:24;;;;;;;;;8.33;8.33;;;;;-146.67;100.00;57155.34;5114148;28;8799;-74
2023/09/09 08:33:49;;;;;;;;;8.67;8.67;;;;;-146.67;100.00;57155.34;5111139;28;8811;-74
2023/09/09 08:36:18;;;;;;;;;9.33;9.00;;;;;-146.67;100.00;57155.34;5102630;28;8837;-74
2023/09/09 08:38:43;;;;;;;;;11.00;7.00;;;;;-146.67;100.00;57155.34;5100023;28;8724;-75
2023/09/09 08:41:20;;;;;;;;;10.67;9.33;;;;;-146.67;100.00;57155.34;5102688;28;9058;-74
2023/09/09 08:43:46;;;;;;;;;13.67;8.67;;;;;-146.67;100.00;57155.34;5084405;28;10007;-74
2023/09/09 08:46:19;;;;;;;;;9.33;8.33;;;;;-146.67;100.00;57155.34;5084886;28;9138;-74
2023/09/09 08:48:48;;;;;;;;;9.67;7.33;;;;;-146.67;100.00;57155.34;5102714;28;8783;-74
2023/09/09 08:51:16;;;;;;;;;10.00;8.00;;;;;-146.67;100.00;57155.34;5098896;28;9318;-74
2023/09/09 08:53:43;;;;;;;;;8.00;6.67;;;;;-146.67;100.00;57155.34;5102033;28;9168;-74
2023/09/09 08:56:12;;;;;;;;;13.33;9.00;;;;;-146.67;100.00;57155.34;5103168;28;8841;-74
2023/09/09 08:58:37;;;;;;;;;12.00;9.33;;;;;-146.67;100.00;57155.34;5084511;28;8973;-74
2023/09/09 09:01:04;;;;;;;;;7.33;7.33;;;;;-146.67;100.00;57155.34;5102628;28;9068;-75
2023/09/09 09:03:31;;;;;;;;;8.67;8.67;;;;;-146.67;100.00;57155.34;5084868;28;10187;-74
2023/09/09 09:05:58;;;;;;;;;7.67;7.67;;;;;-146.67;100.00;57155.34;5100626;28;8831;-74
2023/09/09 09:08:23;;;;;;;;;10.00;7.00;;;;;-146.67;100.00;57155.34;5100665;28;8967;-76
2023/09/09 09:10:49;;;;;;;;;9.00;9.00;;;;;-146.67;100.00;57155.34;5101188;28;9129;-78
2023/09/09 09:13:15;;;;;;;;;8.67;7.00;;;;;-146.67;100.00;57155.34;5100847;28;8807;-79
2023/09/09 09:15:42;;;;;;;;;10.67;9.00;;;;;-146.67;100.00;57155.34;5080260;28;8747;-79
2023/09/09 09:18:10;;;;;;;;;9.33;8.67;;;;;-146.67;100.00;57155.34;5083736;28;9001;-77
2023/09/09 09:20:38;;;;;;;;;14.33;11.00;;;;;-146.67;100.00;57155.34;5105266;28;8991;-78
2023/09/09 09:23:05;;;;;;;;;10.00;8.00;;;;;-146.67;100.00;57155.34;5108651;28;10273;-77
2023/09/09 09:25:37;;;;;;;;;9.33;8.00;;;;;-146.67;100.00;57155.34;5104686;28;8931;-77
2023/09/09 09:28:03;;;;;;;;;9.33;9.00;;;;;-146.67;100.00;57155.34;5082661;28;8933;-76
2023/09/09 09:30:29;;;;;;;;;11.67;10.00;;;;;-146.67;100.00;57155.34;5101845;28;8953;-77
2023/09/09 09:32:55;;;;;;;;;12.33;9.33;;;;;-146.67;100.00;57155.34;5101908;28;9277;-77
2023/09/09 09:35:24;;;;;;;;;11.00;9.67;;;;;-146.67;100.00;57155.34;5100864;28;8755;-77
2023/09/09 09:37:56;;;;;;;;;8.00;7.33;;;;;-146.67;100.00;57155.34;5099872;28;8959;-77
2023/09/09 09:40:21;;;;;;;;;11.00;10.00;;;;;-146.67;100.00;57155.34;5085091;28;9090;-77
2023/09/09 09:42:48;;;;;;;;;8.33;7.00;;;;;-146.67;100.00;57155.34;5100917;28;9112;-77
2023/09/09 09:45:14;;;;;;;;;10.67;9.33;;;;;-146.67;100.00;57155.34;5101754;28;8754;-78
2023/09/09 09:47:47;;;;;;;;;13.00;11.33;;;;;-146.67;100.00;57155.34;5101514;28;8972;-76
2023/09/09 09:50:22;;;;;;;;;12.00;9.33;;;;;-146.67;100.00;57155.34;5096612;28;8787;-77
2023/09/09 09:52:59;;;;;;;;;12.00;10.00;;;;;-146.67;100.00;57155.34;5074510;28;10298;-77
2023/09/09 09:55:26;;;;;;;;;13.33;11.00;;;;;-146.67;100.00;57155.34;5102277;28;8978;-78
2023/09/09 09:57:55;;;;;;;;;12.00;9.33;;;;;-146.67;100.00;57155.34;5107451;28;9015;-78
2023/09/09 10:00:21;;;;;;;;;11.67;7.67;;;;;-146.67;100.00;57155.34;5108929;28;9142;-78
2023/09/09 10:02:51;;;;;;;;;10.67;9.67;;;;;-146.67;100.00;57155.34;5108447;28;9125;-80
2023/09/09 10:05:21;;;;;;;;;10.67;9.67;;;;;-146.67;100.00;57155.34;5109188;28;9139;-81
2023/09/09 10:08:16;;;;;;;;;11.00;10.00;;;;;-146.67;100.00;57155.34;5107177;28;8903;-78
2023/09/09 10:11:10;;;;;;;;;5.00;5.00;;;;;-146.67;100.00;57155.34;5104037;28;9040;-77
2023/09/09 10:14:20;;;;;;;;;16.00;10.00;;;;;-146.67;100.00;57155.34;5085531;28;9329;-73
2023/09/09 10:16:51;;;;;;;;;12.33;9.00;;;;;-146.67;100.00;57155.34;5105988;28;9133;-81
2023/09/09 10:19:18;;;;;;;;;13.00;11.00;;;;;-146.67;100.00;57155.34;5096476;28;8992;-75
2023/09/09 10:21:49;;;;;;;;;9.33;8.67;;;;;-146.67;100.00;57155.34;5095100;28;9103;-77
2023/09/09 10:24:16;;;;;;;;;11.33;10.00;;;;;-146.67;100.00;57155.34;5099058;28;10111;-76
2023/09/09 10:26:42;;;;;;;;;13.67;9.33;;;;;-146.67;100.00;57155.34;5101451;28;9036;-73
2023/09/09 10:29:08;;;;;;;;;10.00;9.00;;;;;-146.67;100.00;57155.34;5098943;28;9153;-74
2023/09/09 10:31:35;;;;;;;;;9.00;9.00;;;;;-146.67;100.00;57155.34;5099671;28;8942;-81
2023/09/09 10:34:02;;;;;;;;;9.00;8.00;;;;;-146.67;100.00;57155.34;5098500;28;10225;-75
2023/09/09 10:36:29;;;;;;;;;13.33;12.67;;;;;-146.67;100.00;57155.34;5098765;28;8912;-76
2023/09/09 10:38:58;;;;;;;;;13.00;12.00;;;;;-146.67;100.00;57155.34;5116188;28;8899;-73
2023/09/09 10:41:23;;;;;;;;;15.00;11.00;;;;;-146.67;100.00;57155.34;5095040;28;9082;-73
2023/09/09 10:43:49;;;;;;;;;14.33;13.67;;;;;-146.67;100.00;57155.34;5086141;28;10148;-74
2023/09/09 10:46:14;;;;;;;;;10.33;10.33;;;;;-146.67;100.00;57155.34;5098877;28;8805;-78
2023/09/09 10:48:43;;;;;;;;;11.67;10.67;;;;;-146.67;100.00;57155.34;5086780;28;8830;-76
2023/09/09 10:51:15;;;;;;;;;14.67;12.00;;;;;-146.67;100.00;57155.34;5103996;28;8832;-76
2023/09/09 10:53:41;;;;;;;;;10.00;9.00;;;;;-146.67;100.00;57155.34;5102864;28;9183;-74
2023/09/09 10:56:15;;;;;;;;;15.00;12.00;;;;;-146.67;100.00;57155.34;5104786;28;9055;-74
2023/09/09 10:58:42;;;;;;;;;14.33;11.67;;;;;-146.67;100.00;57155.34;5104190;28;8916;-76